Time;durP1;ratioP1;P1;durP2;ratioP2;P2;SDS_P1;SDS_P2;PMS_P1;PMS_P2;Temp;Humidity;BMP_temperature;BMP_pressure;BME280_temperature;BME280_humidity;BME280_pressure;Samples;Min_cycle;Max_cycle;Signal;HPM_P1;HPM_P2
2023/05/02 00:00:22;;;;;;;50.45;26.13;;;;;;;8.15;83.44;101704.47;4903208;29;20135;-81
2023/05/02 00:02:51;;;;;;;;;;;;;;;8.27;83.30;101705.03;4899707;29;20048;-81
2023/05/02 00:05:16;;;;;;;50.00;26.27;;;;;;;8.45;83.19;101704.97;4885804;29;20038;-80
2023/05/02 00:07:41;;;;;;;;;;;;;;;8.64;83.53;101704.75;4895476;29;20492;-80
2023/05/02 00:10:09;;;;;;;43.00;21.40;;;;;;;8.73;82.75;101707.44;4887017;29;19948;-80
2023/05/02 00:12:35;;;;;;;41.53;22.83;;;;;;;8.80;82.64;101705.78;4910419;29;20040;-79
2023/05/02 00:15:00;;;;;;;;;;;;;;;8.79;82.26;101701.41;4905244;29;20140;-80
2023/05/02 00:17:28;;;;;;;39.88;20.38;;;;;;;8.83;81.86;101697.38;4893905;29;19923;-81
2023/05/02 00:19:54;;;;;;;42.17;20.40;;;;;;;8.81;82.37;101707.47;4895189;29;20091;-80
2023/05/02 00:22:19;;;;;;;;;;;;;;;8.85;82.08;101706.13;4908128;29;20432;-80
2023/05/02 00:24:46;;;;;;;37.97;18.30;;;;;;;8.89;82.38;101702.09;4911063;29;19927;-80
2023/05/02 00:27:11;;;;;;;36.13;18.27;;;;;;;8.97;81.97;101711.19;4905098;29;20071;-80
2023/05/02 00:29:37;;;;;;;;;;;;;;;9.04;81.77;101709.50;4909353;29;20099;-80
2023/05/02 00:32:04;;;;;;;31.10;15.52;;;;;;;9.08;81.39;101716.22;4874104;29;19930;-81
2023/05/02 00:34:30;;;;;;;31.15;15.55;;;;;;;9.14;80.98;101720.97;4914161;29;20059;-80
2023/05/02 00:36:55;;;;;;;;;;;;;;;9.20;81.58;101725.63;4909520;29;20044;-80
2023/05/02 00:39:21;;;;;;;30.47;14.73;;;;;;;9.24;81.23;101716.25;4917744;29;19927;-80
2023/05/02 00:41:46;;;;;;;31.83;16.15;;;;;;;9.29;81.62;101720.28;4910828;29;20050;-80
2023/05/02 00:44:11;;;;;;;;;;;;;;;9.30;81.66;101724.66;4905818;29;20060;-79
2023/05/02 00:46:37;;;;;;;31.80;15.37;;;;;;;9.31;80.83;101729.03;4908924;29;19923;-79
2023/05/02 00:49:02;;;;;;;30.42;14.50;;;;;;;9.30;81.54;101735.41;4915016;29;20056;-79
2023/05/02 00:51:34;;;;;;;30.75;14.88;;;;;;;9.33;81.21;101735.06;4910767;29;20044;-80
2023/05/02 00:54:00;;;;;;;29.42;13.65;;;;;;;9.40;80.40;101725.31;4909061;29;20166;-80
2023/05/02 00:56:26;;;;;;;30.10;14.88;;;;;;;9.38;81.25;101727.34;4897845;29;20503;-79
2023/05/02 00:58:51;;;;;;;;;;;;;;;9.41;81.09;101727.00;4892760;29;20048;-80
2023/05/02 01:01:33;;;;;;;27.83;13.30;;;;;;;9.44;80.43;101718.63;4865952;29;19931;-80
2023/05/02 01:03:58;;;;;;;29.17;13.75;;;;;;;9.41;80.55;101729.69;4901098;29;20039;-79
2023/05/02 01:06:28;;;;;;;27.73;15.20;;;;;;;9.38;80.48;101724.66;4907522;29;20044;-80
2023/05/02 01:09:27;;;;;;;25.02;12.07;;;;;;;9.41;80.66;101721.63;4904037;29;20108;-80
2023/05/02 01:11:56;;;;;;;30.30;13.90;;;;;;;9.47;80.75;101730.88;4910122;29;20048;-80
2023/05/02 01:14:21;;;;;;;26.05;13.70;;;;;;;9.45;80.58;101732.88;4898276;29;20404;-81
2023/05/02 01:16:49;;;;;;;25.85;13.50;;;;;;;9.40;80.48;101734.25;4919547;29;20040;-80
2023/05/02 01:19:28;;;;;;;26.90;13.52;;;;;;;9.41;80.25;101740.44;4896214;29;20055;-80
2023/05/02 01:21:53;;;;;;;25.73;13.63;;;;;;;9.48;80.39;101735.22;4895490;29;20500;-81
2023/05/02 01:24:24;;;;;;;28.83;12.90;;;;;;;9.49;79.61;101743.16;4898265;29;20044;-81
2023/05/02 01:27:06;;;;;;;29.88;13.15;;;;;;;9.55;79.40;101738.94;4886994;29;20047;-81
2023/05/02 01:29:32;;;;;;;22.45;12.27;;;;;;;9.56;78.98;101735.25;4885305;29;20056;-80
2023/05/02 01:31:57;;;;;;;21.70;11.43;;;;;;;9.59;79.28;101734.06;4882629;29;20046;-80
2023/05/02 01:34:22;;;;;;;;;;;;;;;9.61;78.85;101729.34;4906370;29;20489;-80
2023/05/02 01:36:54;;;;;;;21.90;10.93;;;;;;;9.59;79.04;101739.44;4875915;29;19924;-80
2023/05/02 01:39:21;;;;;;;23.13;11.77;;;;;;;9.55;79.14;101739.78;4901180;29;20055;-80
2023/05/02 01:41:49;;;;;;;21.27;11.07;;;;;;;9.56;78.67;101741.44;4888023;29;20059;-80
2023/05/02 01:44:16;;;;;;;19.83;11.48;;;;;;;9.58;79.52;101737.75;4884177;29;20128;-80
2023/05/02 01:46:41;;;;;;;18.75;10.15;;;;;;;9.58;79.41;101744.00;4887903;29;20052;-80
2023/05/02 01:49:07;;;;;;;21.52;10.43;;;;;;;9.58;79.18;101740.44;4875773;29;20045;-80
2023/05/02 01:54:49;;;;;;;18.65;10.13;;;;;;;9.66;78.83;101745.84;4813230;29;20341;-80
2023/05/02 01:57:14;;;;;;;20.00;10.38;;;;;;;9.65;78.62;101741.47;4832459;29;20481;-80
2023/05/02 01:59:42;;;;;;;20.05;10.65;;;;;;;9.60;78.66;101746.50;4850564;29;20622;-79
2023/05/02 02:02:07;;;;;;;20.58;9.52;;;;;;;9.63;79.21;101749.69;4862167;29;20079;-79
2023/05/02 02:04:36;;;;;;;17.75;10.20;;;;;;;9.63;79.44;101746.16;4885408;29;20537;-79
2023/05/02 02:07:08;;;;;;;18.20;10.40;;;;;;;9.60;79.05;101741.97;4872222;29;20076;-79
2023/05/02 02:09:36;;;;;;;21.92;11.02;;;;;;;9.59;79.89;101742.13;4853133;29;20055;-80
2023/05/02 02:12:10;;;;;;;22.10;11.38;;;;;;;9.59;79.49;101745.66;4875446;29;20048;-80
2023/05/02 02:14:40;;;;;;;20.35;11.82;;;;;;;9.57;80.09;101745.00;4889632;29;20051;-80
2023/05/02 02:17:15;;;;;;;22.77;11.43;;;;;;;9.62;80.09;101744.47;4863259;29;20053;-79
2023/05/02 02:19:41;;;;;;;22.30;11.65;;;;;;;9.57;80.07;101747.69;4881718;29;20126;-80
2023/05/02 02:22:06;;;;;;;18.02;10.68;;;;;;;9.62;80.62;101747.16;4890534;29;20466;-80
2023/05/02 02:24:32;;;;;;;;;;;;;;;9.58;81.43;101748.50;4892213;29;20044;-79
2023/05/02 02:26:58;;;;;;;25.00;12.80;;;;;;;9.58;80.94;101753.88;4893025;29;19938;-80
2023/05/02 02:29:23;;;;;;;23.95;13.05;;;;;;;9.53;81.29;101749.84;4889252;29;20131;-80
2023/05/02 02:31:50;;;;;;;28.15;13.43;;;;;;;9.48;82.06;101760.28;4882145;29;20078;-80
2023/05/02 02:34:15;;;;;;;22.35;12.15;;;;;;;9.48;82.18;101765.66;4881677;29;20048;-80
2023/05/02 02:36:55;;;;;;;23.40;13.15;;;;;;;9.47;82.49;101768.50;4826356;29;20412;-80
2023/05/02 02:39:45;;;;;;;23.27;12.43;;;;;;;9.55;82.23;101772.03;4843614;29;20088;-80
2023/05/02 02:42:28;;;;;;;24.30;12.73;;;;;;;9.54;82.27;101775.72;4860598;29;20123;-79
2023/05/02 02:45:24;;;;;;;26.52;13.75;;;;;;;9.47;83.43;101772.03;4896970;29;20044;-79
2023/05/02 02:48:28;;;;;;;25.17;13.55;;;;;;;9.52;82.73;101783.13;4865964;29;20067;-80
2023/05/02 02:50:58;;;;;;;29.30;13.55;;;;;;;9.51;83.27;101781.44;4885534;29;20507;-80
2023/05/02 02:53:49;;;;;;;27.83;12.82;;;;;;;9.55;83.07;101792.72;4884278;29;20041;-81
2023/05/02 02:56:16;;;;;;;22.65;10.93;;;;;;;9.52;82.99;101793.03;4905184;29;20040;-81
2023/05/02 02:58:48;;;;;;;16.30;9.07;;;;;;;9.43;82.62;101792.19;4894582;29;20052;-80
2023/05/02 03:01:15;;;;;;;12.77;6.97;;;;;;;9.47;82.11;101803.44;4890796;29;20067;-80
2023/05/02 03:03:42;;;;;;;13.90;6.43;;;;;;;9.44;81.71;101810.00;4867255;29;20076;-80
2023/05/02 03:06:08;;;;;;;13.32;6.70;;;;;;;9.34;81.89;101815.50;4868703;29;20850;-80
2023/05/02 03:08:40;;;;;;;12.45;6.65;;;;;;;9.27;82.12;101808.28;4887726;29;20055;-81
2023/05/02 03:11:05;;;;;;;12.27;6.13;;;;;;;9.17;82.33;101830.78;4885523;29;20095;-80
2023/05/02 03:13:32;;;;;;;12.70;6.15;;;;;;;9.14;82.17;101831.09;4877291;29;20051;-80
2023/05/02 03:16:35;;;;;;;11.77;6.35;;;;;;;9.16;82.71;101836.28;4903265;29;20044;-81
2023/05/02 03:19:01;;;;;;;13.50;5.90;;;;;;;9.12;82.36;101835.78;4884346;29;20056;-81
2023/05/02 03:21:30;;;;;;;12.48;5.45;;;;;;;9.06;81.78;101844.47;4887612;29;20052;-81
2023/05/02 03:24:13;;;;;;;10.73;5.65;;;;;;;9.04;82.29;101838.44;4864224;29;20446;-81
2023/05/02 03:26:40;;;;;;;13.82;5.85;;;;;;;9.06;81.57;101855.22;4873376;29;20083;-80
2023/05/02 03:29:06;;;;;;;12.88;5.35;;;;;;;9.04;81.57;101855.41;4897900;29;20063;-80
2023/05/02 03:31:31;;;;;;;;;;;;;;;9.04;80.34;101854.53;4903494;29;20087;-80
2023/05/02 03:33:56;;;;;;;11.23;4.93;;;;;;;9.05;79.64;101856.22;4878251;29;19930;-80
2023/05/02 03:36:23;;;;;;;9.68;4.55;;;;;;;9.01;79.25;101854.88;4890931;29;20044;-80
2023/05/02 03:38:48;;;;;;;6.43;4.60;;;;;;;9.01;79.14;101854.88;4880275;29;20035;-80
2023/05/02 03:41:15;;;;;;;9.70;4.50;;;;;;;9.04;78.09;101859.91;4891566;29;20527;-80
2023/05/02 03:43:43;;;;;;;8.18;4.20;;;;;;;8.99;77.75;101857.72;4910313;29;20040;-81
2023/05/02 03:46:10;;;;;;;6.55;4.13;;;;;;;8.97;76.99;101864.28;4902964;29;20127;-81
2023/05/02 03:48:36;;;;;;;5.97;3.75;;;;;;;8.97;76.81;101869.63;4899285;29;20040;-80
2023/05/02 03:51:01;;;;;;;;;;;;;;;9.00;76.54;101863.94;4912559;29;20047;-80
2023/05/02 03:53:33;;;;;;;5.05;3.50;;;;;;;8.98;75.34;101872.16;4898876;29;19923;-79
2023/05/02 03:56:01;;;;;;;6.25;3.42;;;;;;;8.94;75.55;101871.63;4869957;29;21189;-79
2023/05/02 03:58:27;;;;;;;5.40;3.35;;;;;;;8.93;76.37;101872.63;4879108;29;20045;-80
2023/05/02 04:00:52;;;;;;;6.53;3.55;;;;;;;8.91;75.34;101873.81;4880295;29;20040;-81
2023/05/02 04:03:18;;;;;;;;;;;;;;;8.87;75.31;101880.50;4899156;29;20095;-81
2023/05/02 04:05:44;;;;;;;10.57;3.70;;;;;;;8.79;75.11;101870.56;4891556;29;20455;-81
2023/05/02 04:08:10;;;;;;;6.10;3.13;;;;;;;8.73;75.39;101884.63;4891125;29;20116;-80
2023/05/02 04:10:35;;;;;;;;;;;;;;;8.74;75.53;101894.34;4904844;29;20063;-81
2023/05/02 04:13:02;;;;;;;5.00;3.20;;;;;;;8.70;75.69;101895.66;4895196;29;19964;-78
2023/05/02 04:15:27;;;;;;;6.10;3.40;;;;;;;8.68;76.66;101892.28;4905577;29;20059;-78
2023/05/02 04:17:52;;;;;;;;;;;;;;;8.64;75.83;101892.63;4905657;29;20574;-83
2023/05/02 04:20:18;;;;;;;6.63;3.38;;;;;;;8.71;75.01;101897.34;4890316;29;19998;-77
2023/05/02 04:22:45;;;;;;;;;;;;;;;8.68;74.88;101898.53;4916465;29;20036;-84
2023/05/02 04:25:10;;;;;;;7.65;3.50;;;;;;;8.63;74.61;101907.06;4892056;29;19926;-83
2023/05/02 04:27:35;;;;;;;;;;;;;;;8.64;74.82;101911.44;4886726;29;20485;-82
2023/05/02 04:30:02;;;;;;;5.17;3.20;;;;;;;8.63;75.32;101914.25;4901544;29;20017;-82
2023/05/02 04:32:28;;;;;;;8.82;3.35;;;;;;;8.65;74.82;101915.75;4907909;29;20272;-83
2023/05/02 04:34:53;;;;;;;;;;;;;;;8.64;75.18;101915.94;4908933;29;20048;-83
2023/05/02 04:37:18;;;;;;;8.17;3.53;;;;;;;8.60;75.11;101918.09;4910517;29;19963;-83
2023/05/02 04:39:44;;;;;;;;;;;;;;;8.63;75.44;101925.00;4908063;29;20056;-83
2023/05/02 04:42:09;;;;;;;3.80;3.00;;;;;;;8.67;74.86;101931.72;4902320;29;19927;-84
2023/05/02 04:44:34;;;;;;;;;;;;;;;8.67;74.36;101930.88;4907010;29;20292;-83
2023/05/02 04:47:00;;;;;;;6.23;3.30;;;;;;;8.72;74.26;101942.00;4910123;29;19959;-81
2023/05/02 04:49:25;;;;;;;;;;;;;;;8.73;74.23;101946.38;4907560;29;20284;-83
2023/05/02 04:51:52;;;;;;;6.05;3.20;;;;;;;8.77;74.52;101945.88;4908843;29;19923;-83
2023/05/02 04:54:17;;;;;;;5.22;3.25;;;;;;;8.84;73.85;101956.81;4893187;29;20048;-84
2023/05/02 04:56:42;;;;;;;;;;;;;;;8.79;73.94;101951.09;4892489;29;20115;-82
2023/05/02 04:59:08;;;;;;;7.17;3.30;;;;;;;8.80;74.31;101963.53;4909297;29;21003;-79
2023/05/02 05:01:33;;;;;;;;;;;;;;;8.81;74.41;101965.22;4902031;29;20297;-79
2023/05/02 05:03:58;;;;;;;5.90;3.27;;;;;;;8.83;74.55;101973.94;4907267;29;19923;-79
2023/05/02 05:06:23;;;;;;;;;;;;;;;8.71;75.61;101984.13;4908942;29;20299;-79
2023/05/02 05:08:52;;;;;;;9.13;3.90;;;;;;;8.63;76.06;101987.59;4907781;29;19946;-79
2023/05/02 05:11:17;;;;;;;6.78;3.05;;;;;;;8.59;76.90;101988.88;4908715;29;20519;-79
2023/05/02 05:13:42;;;;;;;;;;;;;;;8.50;76.68;102003.22;4898831;29;20051;-79
2023/05/02 05:16:08;;;;;;;10.03;3.43;;;;;;;8.41;77.34;102012.19;4893365;29;20432;-79
2023/05/02 05:18:39;;;;;;;;;;;;;;;8.35;76.59;102017.16;4902852;29;20302;-78
2023/05/02 05:21:08;;;;;;;12.52;4.25;;;;;;;8.37;77.03;102019.72;4880797;29;19923;-79
2023/05/02 05:23:34;;;;;;;7.53;3.30;;;;;;;8.33;76.93;102023.69;4911971;29;20392;-79
2023/05/02 05:26:09;;;;;;;;;;;;;;;8.21;77.50;102030.28;4888730;29;20048;-79
2023/05/02 05:28:34;;;;;;;9.73;3.42;;;;;;;8.20;77.38;102026.75;4894311;29;20442;-79
2023/05/02 05:31:03;;;;;;;;;;;;;;;8.15;77.00;102034.38;4888297;29;20052;-79
2023/05/02 05:34:03;;;;;;;9.35;3.33;;;;;;;8.07;77.25;102039.69;4883010;29;20474;-78
2023/05/02 05:40:00;;;;;;;9.05;3.90;;;;;;;8.07;78.06;102039.69;4887518;29;20048;-79
2023/05/02 05:45:47;;;;;;;12.75;3.63;;;;;;;8.19;76.33;102057.22;4903771;29;20298;-77
2023/05/02 05:48:13;;;;;;;;;;;;;;;8.23;75.21;102058.63;4881959;29;20464;-80
2023/05/02 05:50:38;;;;;;;13.38;3.38;;;;;;;8.30;75.56;102059.69;4904973;29;19927;-78
2023/05/02 05:53:20;;;;;;;;;;;;;;;8.39;74.58;102063.31;4916218;29;20090;-77
2023/05/02 05:56:07;;;;;;;12.00;3.30;;;;;;;8.55;74.31;102076.06;4903261;29;19975;-79
2023/05/02 05:58:34;;;;;;;7.45;3.30;;;;;;;8.62;73.51;102082.53;4878336;29;20052;-79
2023/05/02 06:01:00;;;;;;;11.57;3.60;;;;;;;8.78;74.42;102078.31;4911702;29;20120;-78
2023/05/02 06:03:26;;;;;;;;;;;;;;;8.83;74.10;102081.34;4878810;29;20477;-78
2023/05/02 06:05:52;;;;;;;10.70;3.40;;;;;;;8.94;73.63;102082.94;4896232;29;19958;-79
2023/05/02 06:08:17;;;;;;;11.63;3.72;;;;;;;9.08;73.05;102093.16;4881355;29;20131;-78
2023/05/02 06:10:44;;;;;;;;;;;;;;;9.08;72.78;102089.59;4903201;29;20484;-78
2023/05/02 06:13:09;;;;;;;11.02;3.53;;;;;;;9.09;73.10;102089.44;4895525;29;19927;-78
2023/05/02 06:15:36;;;;;;;;;;;;;;;8.94;73.30;102101.75;4906934;29;20056;-78
2023/05/02 06:18:01;;;;;;;9.63;3.40;;;;;;;8.84;73.85;102099.16;4877805;29;19928;-78
2023/05/02 06:20:26;;;;;;;;;;;;;;;8.72;74.29;102112.00;4889981;29;20468;-78
2023/05/02 06:22:52;;;;;;;17.97;4.70;;;;;;;8.51;74.75;102117.63;4898176;29;20394;-79
2023/05/02 06:25:17;;;;;;;;;;;;;;;8.44;75.29;102111.16;4896546;29;20468;-78
2023/05/02 06:27:42;;;;;;;13.57;4.40;;;;;;;8.38;76.46;102128.72;4899980;29;19923;-78
2023/05/02 06:44:08;;;;;;;10.68;4.18;;;;;;;8.79;71.22;102163.22;5121198;23;20609;-79
2023/05/02 06:46:34;;;;;;;14.20;4.45;;;;;;;8.65;71.13;102170.78;4900904;29;20048;-78
2023/05/02 06:48:59;;;;;;;;;;;;;;;8.39;71.09;102175.16;4910325;29;20059;-79
2023/05/02 06:51:25;;;;;;;14.00;3.77;;;;;;;8.35;71.37;102182.69;4868743;29;19938;-78
2023/05/02 06:53:51;;;;;;;;;;;;;;;8.24;70.97;102196.28;4876635;29;20296;-80
2023/05/02 06:56:18;;;;;;;12.52;3.95;;;;;;;8.34;70.62;102195.25;4905662;29;20362;-78
2023/05/02 06:58:46;;;;;;;11.85;3.85;;;;;;;8.64;69.53;102204.03;4880762;29;20048;-79
2023/05/02 07:01:11;;;;;;;13.00;4.20;;;;;;;8.68;68.97;102193.81;4887370;29;20040;-78
2023/05/02 07:03:39;;;;;;;;;;;;;;;8.95;68.72;102200.97;4877087;29;20054;-78
2023/05/02 07:06:05;;;;;;;10.57;3.80;;;;;;;9.06;67.89;102197.22;4887701;29;19970;-78
2023/05/02 07:08:30;;;;;;;15.80;3.70;;;;;;;9.21;67.40;102199.38;4913118;29;20567;-78
2023/05/02 07:10:58;;;;;;;;;;;;;;;9.40;66.74;102203.72;4911769;29;20058;-78
2023/05/02 07:13:24;;;;;;;12.35;3.45;;;;;;;9.59;65.87;102212.59;4900815;29;20288;-79
2023/05/02 07:20:06;;;;;;;11.32;3.53;;;;;;;10.02;62.36;102218.94;4918364;23;20087;-79
2023/05/02 07:23:19;;;;;;;9.65;3.10;;;;;;;10.34;59.86;102232.69;4895707;29;20051;-79
2023/05/02 07:25:44;;;;;;;11.60;3.05;;;;;;;10.34;58.96;102220.09;4915180;29;20075;-78
2023/05/02 07:28:25;;;;;;;11.27;3.60;;;;;;;10.39;58.99;102231.25;4905283;29;20052;-79
2023/05/02 07:31:14;;;;;;;8.50;3.40;;;;;;;10.41;58.12;102234.63;4895715;29;20060;-79
2023/05/02 07:33:40;;;;;;;14.75;3.60;;;;;;;10.38;58.14;102234.97;4901919;29;20065;-80
2023/05/02 07:36:11;;;;;;;13.75;2.92;;;;;;;10.27;58.54;102240.56;4887777;29;20044;-79
2023/05/02 07:38:55;;;;;;;9.90;3.10;;;;;;;10.02;58.27;102241.28;4858237;29;20048;-80
2023/05/02 07:41:32;;;;;;;11.23;3.30;;;;;;;10.07;58.49;102251.56;4896992;29;20042;-80
2023/05/02 07:43:57;;;;;;;10.55;3.22;;;;;;;10.12;58.54;102251.13;4887306;29;20051;-79
2023/05/02 07:46:23;;;;;;;9.45;3.17;;;;;;;10.20;58.40;102256.53;4886918;29;20036;-79
2023/05/02 07:48:52;;;;;;;8.95;2.75;;;;;;;10.41;57.72;102256.16;4871078;29;20072;-79
2023/05/02 07:51:20;;;;;;;11.38;2.95;;;;;;;10.48;56.98;102266.28;4904645;29;20043;-79
2023/05/02 07:53:46;;;;;;;8.80;2.70;;;;;;;10.87;55.81;102271.16;4893560;29;20071;-80
2023/05/02 07:56:11;;;;;;;9.45;2.67;;;;;;;10.92;54.18;102272.34;4884054;29;20044;-80
2023/05/02 07:58:39;;;;;;;9.25;2.50;;;;;;;10.93;55.06;102262.41;4856962;29;20194;-79
2023/05/02 08:01:05;;;;;;;8.15;2.60;;;;;;;10.88;54.93;102272.84;4879573;29;20135;-80
2023/05/02 08:03:30;;;;;;;9.07;3.00;;;;;;;10.80;54.66;102267.41;4895174;29;20048;-80
2023/05/02 08:05:56;;;;;;;6.82;2.40;;;;;;;10.51;54.78;102282.13;4908123;29;20040;-80
2023/05/02 08:08:21;;;;;;;11.05;2.95;;;;;;;10.41;55.34;102283.06;4911880;29;20047;-79
2023/05/02 08:10:47;;;;;;;10.23;2.20;;;;;;;10.38;55.76;102272.66;4890218;29;20428;-79
2023/05/02 08:13:12;;;;;;;8.00;2.40;;;;;;;10.63;55.29;102286.22;4907010;29;20055;-79
2023/05/02 08:15:38;;;;;;;8.77;2.42;;;;;;;10.82;55.20;102284.25;4906308;29;20103;-80
2023/05/02 08:18:03;;;;;;;7.32;2.20;;;;;;;11.23;53.63;102287.06;4901134;29;20416;-80
2023/05/02 08:20:28;;;;;;;7.68;2.35;;;;;;;11.77;51.62;102285.75;4913204;29;20115;-79
2023/05/02 08:22:54;;;;;;;8.25;2.55;;;;;;;12.35;50.07;102302.72;4876728;29;20100;-79
2023/05/02 08:25:22;;;;;;;6.82;2.35;;;;;;;13.10;47.99;102303.25;4896016;29;20044;-80
2023/05/02 08:27:49;;;;;;;5.10;1.95;;;;;;;13.35;47.12;102303.09;4876842;29;20493;-79
2023/05/02 08:30:15;;;;;;;7.85;2.13;;;;;;;13.63;44.99;102313.38;4898719;29;20103;-80
2023/05/02 08:32:40;;;;;;;4.78;2.00;;;;;;;13.75;44.99;102305.69;4913692;29;20048;-80
2023/05/02 08:37:44;;;;;;;5.53;1.75;;;;;;;13.36;45.26;102321.00;5390225;23;20044;-78
2023/05/02 08:40:11;;;;;;;5.10;2.10;;;;;;;13.23;44.58;102315.34;4896802;29;20064;-79
2023/05/02 08:42:36;;;;;;;4.00;2.10;;;;;;;13.56;43.88;102317.84;4885613;29;20044;-79
2023/05/02 08:45:02;;;;;;;4.40;1.80;;;;;;;13.86;42.84;102312.53;4868761;29;20083;-80
2023/05/02 08:47:37;;;;;;;4.78;2.03;;;;;;;13.81;43.07;102329.31;4876445;29;20143;-80
2023/05/02 08:50:04;;;;;;;5.30;1.80;;;;;;;14.07;42.13;102337.03;4880001;29;20055;-79
2023/05/02 08:52:30;;;;;;;5.45;1.80;;;;;;;14.35;41.59;102332.88;4893706;29;20515;-80
2023/05/02 08:54:55;;;;;;;3.15;1.90;;;;;;;14.17;40.32;102333.22;4873360;29;20040;-80
2023/05/02 08:57:20;;;;;;;4.93;1.80;;;;;;;13.76;40.89;102337.13;4899219;29;20417;-79
2023/05/02 08:59:48;;;;;;;4.65;1.70;;;;;;;13.72;41.20;102342.09;4900797;29;20436;-79
2023/05/02 09:02:55;;;;;;;5.20;1.50;;;;;;;13.21;41.77;102333.63;4897748;29;20128;-79
2023/05/02 09:05:20;;;;;;;4.57;1.45;;;;;;;13.13;40.06;102332.63;4888289;29;20059;-80
2023/05/02 09:07:47;;;;;;;2.30;1.40;;;;;;;12.86;40.23;102337.50;4862065;29;20437;-79
2023/05/02 09:10:14;;;;;;;3.00;1.60;;;;;;;12.83;40.79;102348.66;4863638;29;20075;-80
2023/05/02 09:12:40;;;;;;;3.13;1.80;;;;;;;12.64;40.65;102349.06;4882768;29;20044;-79
2023/05/02 09:15:12;;;;;;;4.68;1.90;;;;;;;12.72;42.26;102352.59;4892741;29;20492;-79
2023/05/02 09:17:41;;;;;;;5.25;1.90;;;;;;;12.76;41.72;102353.06;4889375;29;20139;-79
2023/05/02 09:20:08;;;;;;;5.90;2.00;;;;;;;12.83;41.55;102354.06;4895326;29;20180;-79
2023/05/02 09:22:33;;;;;;;3.53;1.80;;;;;;;12.64;41.37;102355.28;4873621;29;20040;-79
2023/05/02 09:24:59;;;;;;;5.85;1.80;;;;;;;12.38;40.91;102364.50;4888681;29;20405;-79
2023/05/02 09:27:25;;;;;;;8.13;2.10;;;;;;;12.57;39.95;102363.25;4858595;29;20081;-79
2023/05/02 09:29:51;;;;;;;4.28;2.00;;;;;;;12.50;41.14;102367.69;4882587;29;20044;-79
2023/05/02 09:32:16;;;;;;;6.07;2.13;;;;;;;13.01;40.28;102372.72;4906869;29;20043;-79
2023/05/02 09:35:07;;;;;;;6.28;2.28;;;;;;;13.37;39.54;102370.53;4884665;29;20551;-79
2023/05/02 09:37:33;;;;;;;4.70;2.10;;;;;;;13.23;41.26;102380.25;4904878;29;20052;-79
2023/05/02 09:40:05;;;;;;;7.15;2.28;;;;;;;13.73;39.86;102388.91;4871147;29;20131;-78
2023/05/02 09:42:34;;;;;;;7.50;2.22;;;;;;;13.74;39.44;102386.06;4894786;29;20135;-79
2023/05/02 09:44:59;;;;;;;4.03;1.90;;;;;;;13.95;38.31;102392.63;4864136;29;20100;-79
2023/05/02 09:47:29;;;;;;;5.57;2.00;;;;;;;13.82;38.23;102395.13;4851676;29;20048;-79
2023/05/02 09:49:56;;;;;;;4.28;2.00;;;;;;;13.79;37.74;102390.91;4903903;29;20054;-79
2023/05/02 09:52:24;;;;;;;3.95;1.88;;;;;;;14.19;37.58;102396.16;4869360;29;22393;-79
2023/05/02 09:54:51;;;;;;;4.30;2.00;;;;;;;14.83;36.54;102394.84;4839832;29;20058;-78
2023/05/02 09:57:19;;;;;;;5.78;1.90;;;;;;;15.33;35.06;102386.94;4881823;29;20096;-80
2023/05/02 09:59:57;;;;;;;5.32;2.05;;;;;;;15.88;33.84;102395.50;4888358;29;20040;-80
2023/05/02 10:02:23;;;;;;;4.30;2.20;;;;;;;16.00;34.12;102398.50;4896584;29;20044;-80
2023/05/02 10:04:49;;;;;;;6.18;2.15;;;;;;;15.85;33.21;102406.75;4861243;29;20048;-79
2023/05/02 10:07:17;;;;;;;6.93;2.22;;;;;;;15.16;34.91;102399.91;4884613;29;20567;-79
2023/05/02 10:09:43;;;;;;;4.93;2.17;;;;;;;15.31;34.64;102400.72;4884084;29;20060;-79
2023/05/02 10:12:15;;;;;;;5.47;2.13;;;;;;;15.45;33.75;102412.53;4839001;29;20477;-79
2023/05/02 10:14:44;;;;;;;6.13;2.50;;;;;;;15.87;33.54;102410.13;4817298;29;20053;-79
2023/05/02 10:17:11;;;;;;;5.53;2.13;;;;;;;16.86;30.88;102412.91;4888673;29;20480;-80
2023/05/02 10:20:03;;;;;;;5.55;2.28;;;;;;;18.60;28.43;102417.91;4868826;29;20040;-79
2023/05/02 10:22:28;;;;;;;4.82;2.28;;;;;;;19.19;28.41;102412.53;4844016;29;20036;-80
2023/05/02 10:24:54;;;;;;;5.88;2.20;;;;;;;18.97;28.23;102411.13;4836511;29;20055;-80
2023/05/02 10:27:19;;;;;;;7.30;2.33;;;;;;;19.48;27.30;102404.81;4864064;29;20071;-80
2023/05/02 10:29:46;;;;;;;6.18;2.33;;;;;;;20.19;27.47;102412.97;4871471;29;20496;-80
2023/05/02 10:32:12;;;;;;;6.05;2.47;;;;;;;21.75;25.04;102410.97;4891454;29;20040;-80
2023/05/02 10:34:41;;;;;;;9.02;2.45;;;;;;;20.81;24.92;102411.34;4854527;29;20063;-81
2023/05/02 10:37:12;;;;;;;5.25;2.40;;;;;;;19.51;27.10;102401.66;4890262;29;20059;-81
2023/05/02 10:39:38;;;;;;;7.60;2.53;;;;;;;19.81;27.14;102414.69;4899470;29;20083;-80
2023/05/02 10:42:03;;;;;;;6.15;2.28;;;;;;;21.23;24.98;102413.38;4902624;29;20048;-80
2023/05/02 10:48:13;;;;;;;6.13;2.75;;;;;;;19.81;26.96;102411.13;4832845;29;20434;-78
2023/05/02 10:51:00;;;;;;;8.60;2.30;;;;;;;19.67;26.50;102404.91;4839638;29;20058;-79
2023/05/02 10:56:58;;;;;;;5.05;2.10;;;;;;;21.47;24.64;102414.28;4854711;29;20508;-79
2023/05/02 10:59:27;;;;;;;8.00;2.65;;;;;;;20.41;25.21;102416.13;4849584;29;20046;-79
2023/05/02 11:01:58;;;;;;;4.93;2.38;;;;;;;20.96;25.13;102424.63;4844403;29;20044;-79
2023/05/02 11:04:24;;;;;;;8.43;2.95;;;;;;;19.79;25.61;102432.38;4894725;29;20044;-80
2023/05/02 11:06:59;;;;;;;6.15;2.53;;;;;;;18.72;27.62;102428.16;4891889;29;20044;-80
2023/05/02 11:09:24;;;;;;;9.43;2.80;;;;;;;20.31;26.79;102429.47;4898727;29;20044;-80
2023/05/02 11:11:51;;;;;;;8.03;2.93;;;;;;;20.41;26.14;102421.59;4882576;29;20054;-80
2023/05/02 11:14:25;;;;;;;5.55;2.80;;;;;;;20.32;25.86;102425.66;4844046;29;20296;-80
2023/05/02 11:16:56;;;;;;;6.70;2.85;;;;;;;20.34;26.20;102426.28;4887082;29;20048;-80
2023/05/02 11:19:22;;;;;;;10.32;2.88;;;;;;;20.91;25.93;102425.31;4891243;29;20041;-80
2023/05/02 11:21:47;;;;;;;9.77;2.97;;;;;;;20.02;25.74;102426.34;4895719;29;20579;-80
2023/05/02 11:24:43;;;;;;;5.35;2.92;;;;;;;18.86;27.94;102429.84;4895396;29;20040;-80
2023/05/02 11:27:37;;;;;;;11.27;3.30;;;;;;;19.57;27.06;102420.97;4896712;29;20044;-81
2023/05/02 11:30:08;;;;;;;6.72;3.05;;;;;;;20.39;25.27;102415.53;4890409;29;20040;-80
2023/05/02 11:32:47;;;;;;;9.73;2.83;;;;;;;19.82;25.38;102410.06;4880196;29;20132;-80
2023/05/02 11:35:30;;;;;;;7.88;3.05;;;;;;;18.15;28.58;102418.59;4894591;29;20131;-81
2023/05/02 11:37:59;;;;;;;5.18;2.95;;;;;;;18.43;28.51;102422.13;4908487;29;20044;-80
2023/05/02 11:40:27;;;;;;;8.05;3.00;;;;;;;18.62;29.32;102426.72;4907817;29;20416;-80
2023/05/02 11:42:53;;;;;;;7.78;3.00;;;;;;;17.93;29.39;102423.38;4908911;29;20044;-80
2023/05/02 11:45:19;;;;;;;7.85;3.25;;;;;;;18.76;27.98;102421.25;4895556;29;20259;-80
2023/05/02 11:47:46;;;;;;;7.65;3.45;;;;;;;18.82;28.16;102428.56;4878773;29;20076;-80
2023/05/02 11:50:29;;;;;;;7.95;3.10;;;;;;;18.31;29.04;102430.97;4885400;29;20040;-81
2023/05/02 11:52:54;;;;;;;5.18;2.88;;;;;;;17.34;30.80;102438.50;4903157;29;20132;-80
2023/05/02 11:55:20;;;;;;;9.82;3.40;;;;;;;17.07;31.60;102441.09;4907193;29;20036;-80
2023/05/02 11:57:45;;;;;;;6.65;3.10;;;;;;;17.33;31.02;102440.38;4891177;29;20213;-80
2023/05/02 12:00:11;;;;;;;8.88;3.20;;;;;;;17.25;30.99;102440.56;4878125;29;20055;-80
2023/05/02 12:02:44;;;;;;;5.72;3.10;;;;;;;16.95;31.73;102448.97;4862099;29;20789;-80
2023/05/02 12:05:11;;;;;;;6.53;3.58;;;;;;;16.98;31.07;102454.03;4858455;29;20043;-80
2023/05/02 12:07:43;;;;;;;8.20;3.22;;;;;;;17.09;31.60;102452.63;4885057;29;20075;-80
2023/05/02 12:10:09;;;;;;;12.10;3.47;;;;;;;17.75;30.36;102453.09;4896091;29;20147;-80
2023/05/02 12:12:35;;;;;;;8.50;3.40;;;;;;;17.56;30.40;102461.00;4841993;29;20083;-80
2023/05/02 12:15:04;;;;;;;5.68;3.05;;;;;;;17.17;30.95;102457.91;4907952;29;20060;-80
2023/05/02 12:17:30;;;;;;;8.98;3.20;;;;;;;17.04;30.56;102457.81;4906631;29;20056;-80
2023/05/02 12:19:56;;;;;;;6.90;3.33;;;;;;;17.57;30.36;102466.22;4890115;29;20048;-80